sensor_id;sensor_type;location;lat;lon;timestamp;pressure;altitude;pressure_sealevel;temperature;humidity
60087;BME280;45960;53.630;55.972;2022-08-01T00:00:24;99671.47;;;19.97;61.86
60087;BME280;45960;53.630;55.972;2022-08-01T00:01:26;99668.97;;;19.95;61.74
60087;BME280;45960;53.630;55.972;2022-08-01T00:02:28;99669.81;;;19.96;61.74
60087;BME280;45960;53.630;55.972;2022-08-01T00:03:29;99670.66;;;19.96;61.88
60087;BME280;45960;53.630;55.972;2022-08-01T00:04:30;99673.53;;;19.95;61.88
60087;BME280;45960;53.630;55.972;2022-08-01T00:05:31;99672.50;;;19.96;62.06
60087;BME280;45960;53.630;55.972;2022-08-01T00:06:32;99668.13;;;19.95;62.10
60087;BME280;45960;53.630;55.972;2022-08-01T00:07:34;99659.00;;;19.87;61.90
60087;BME280;45960;53.630;55.972;2022-08-01T00:08:36;99670.84;;;19.95;61.67
60087;BME280;45960;53.630;55.972;2022-08-01T00:09:37;99673.53;;;19.95;61.86
60087;BME280;45960;53.630;55.972;2022-08-01T00:10:38;99673.91;;;19.92;61.76
60087;BME280;45960;53.630;55.972;2022-08-01T00:11:39;99674.75;;;19.92;62.03
60087;BME280;45960;53.630;55.972;2022-08-01T00:12:41;99662.41;;;19.81;61.70
60087;BME280;45960;53.630;55.972;2022-08-01T00:13:42;99676.28;;;19.86;61.88
60087;BME280;45960;53.630;55.972;2022-08-01T00:14:43;99672.19;;;19.90;62.21
60087;BME280;45960;53.630;55.972;2022-08-01T00:15:44;99683.03;;;19.90;62.03
60087;BME280;45960;53.630;55.972;2022-08-01T00:16:45;99679.31;;;19.92;62.02
60087;BME280;45960;53.630;55.972;2022-08-01T00:17:47;99683.03;;;19.90;61.82
60087;BME280;45960;53.630;55.972;2022-08-01T00:18:49;99680.31;;;19.90;61.99
60087;BME280;45960;53.630;55.972;2022-08-01T00:19:50;99675.56;;;19.93;61.77
60087;BME280;45960;53.630;55.972;2022-08-01T00:20:51;99681.00;;;19.93;61.93
60087;BME280;45960;53.630;55.972;2022-08-01T00:21:52;99677.63;;;19.90;62.11
60087;BME280;45960;53.630;55.972;2022-08-01T00:22:53;99672.19;;;19.90;61.85
60087;BME280;45960;53.630;55.972;2022-08-01T00:23:55;99683.03;;;19.90;61.88
60087;BME280;45960;53.630;55.972;2022-08-01T00:24:56;99671.88;;;19.85;61.87
60087;BME280;45960;53.630;55.972;2022-08-01T00:25:57;99672.19;;;19.90;62.12
60087;BME280;45960;53.630;55.972;2022-08-01T00:26:58;99676.97;;;19.88;61.93
60087;BME280;45960;53.630;55.972;2022-08-01T00:27:59;99672.75;;;19.86;62.01
60087;BME280;45960;53.630;55.972;2022-08-01T00:29:00;99677.13;;;19.87;62.05
60087;BME280;45960;53.630;55.972;2022-08-01T00:30:02;99682.53;;;19.87;61.83
60087;BME280;45960;53.630;55.972;2022-08-01T00:31:03;99671.22;;;19.83;61.82
60087;BME280;45960;53.630;55.972;2022-08-01T00:32:05;99680.69;;;19.87;61.83
60087;BME280;45960;53.630;55.972;2022-08-01T00:33:06;99681.72;;;19.86;61.96
60087;BME280;45960;53.630;55.972;2022-08-01T00:34:07;99677.97;;;19.87;62.12
60087;BME280;45960;53.630;55.972;2022-08-01T00:35:08;99686.94;;;19.88;62.06
60087;BME280;45960;53.630;55.972;2022-08-01T00:36:10;99687.13;;;19.86;62.27
60087;BME280;45960;53.630;55.972;2022-08-01T00:37:11;99682.72;;;19.85;62.28
60087;BME280;45960;53.630;55.972;2022-08-01T00:38:12;99680.00;;;19.85;62.20
60087;BME280;45960;53.630;55.972;2022-08-01T00:39:13;99678.66;;;19.81;62.12
60087;BME280;45960;53.630;55.972;2022-08-01T00:40:14;99682.06;;;19.83;62.10
60087;BME280;45960;53.630;55.972;2022-08-01T00:41:15;99678.66;;;19.81;62.00
60087;BME280;45960;53.630;55.972;2022-08-01T00:42:16;99677.00;;;19.80;62.06
60087;BME280;45960;53.630;55.972;2022-08-01T00:43:17;99675.97;;;19.81;62.20
60087;BME280;45960;53.630;55.972;2022-08-01T00:44:18;99678.66;;;19.81;61.90
60087;BME280;45960;53.630;55.972;2022-08-01T00:45:20;99681.38;;;19.81;62.07
60087;BME280;45960;53.630;55.972;2022-08-01T00:46:21;99684.09;;;19.81;61.84
60087;BME280;45960;53.630;55.972;2022-08-01T00:47:22;99688.69;;;19.81;62.01
60087;BME280;45960;53.630;55.972;2022-08-01T00:48:23;99685.28;;;19.79;62.10
60087;BME280;45960;53.630;55.972;2022-08-01T00:49:24;99680.69;;;19.79;62.17
60087;BME280;45960;53.630;55.972;2022-08-01T00:50:25;99686.13;;;19.79;62.24
60087;BME280;45960;53.630;55.972;2022-08-01T00:51:26;99667.16;;;19.71;62.25
60087;BME280;45960;53.630;55.972;2022-08-01T00:52:28;99680.69;;;19.79;62.38
60087;BME280;45960;53.630;55.972;2022-08-01T00:53:29;99684.25;;;19.80;62.25
60087;BME280;45960;53.630;55.972;2022-08-01T00:54:30;99683.41;;;19.79;62.36
60087;BME280;45960;53.630;55.972;2022-08-01T00:55:32;99673.94;;;19.75;62.43
60087;BME280;45960;53.630;55.972;2022-08-01T00:56:33;99682.72;;;19.77;62.43
60087;BME280;45960;53.630;55.972;2022-08-01T00:57:34;99677.31;;;19.77;62.40
60087;BME280;45960;53.630;55.972;2022-08-01T00:58:36;99683.75;;;19.76;62.42
60087;BME280;45960;53.630;55.972;2022-08-01T00:59:38;99682.09;;;19.75;62.43
60087;BME280;45960;53.630;55.972;2022-08-01T01:00:40;99665.13;;;19.73;62.30
60087;BME280;45960;53.630;55.972;2022-08-01T01:01:41;99674.78;;;19.76;62.35
60087;BME280;45960;53.630;55.972;2022-08-01T01:02:42;99674.59;;;19.77;62.11
60087;BME280;45960;53.630;55.972;2022-08-01T01:03:44;99681.06;;;19.76;62.03
60087;BME280;45960;53.630;55.972;2022-08-01T01:04:45;99635.69;;;19.54;62.00
60087;BME280;45960;53.630;55.972;2022-08-01T01:07:32;99668.53;;;19.59;62.01
60087;BME280;45960;53.630;55.972;2022-08-01T01:08:46;99676.00;;;19.57;62.07
60087;BME280;45960;53.630;55.972;2022-08-01T01:09:56;99672.59;;;19.55;61.81
60087;BME280;45960;53.630;55.972;2022-08-01T01:11:05;99672.59;;;19.55;61.96
60087;BME280;45960;53.630;55.972;2022-08-01T01:12:29;99672.94;;;19.52;62.08
60087;BME280;45960;53.630;55.972;2022-08-01T01:13:38;99655.22;;;19.41;62.24
60087;BME280;45960;53.630;55.972;2022-08-01T01:16:07;99671.63;;;19.48;62.28
60087;BME280;45960;53.630;55.972;2022-08-01T01:17:11;99670.22;;;19.52;62.44
60087;BME280;45960;53.630;55.972;2022-08-01T01:19:23;99678.00;;;19.55;62.70
60087;BME280;45960;53.630;55.972;2022-08-01T01:20:35;99680.06;;;19.53;62.61
60087;BME280;45960;53.630;55.972;2022-08-01T01:28:27;99677.03;;;19.39;63.00
60087;BME280;45960;53.630;55.972;2022-08-01T01:29:35;99669.59;;;19.41;63.23
60087;BME280;45960;53.630;55.972;2022-08-01T01:30:42;99677.38;;;19.44;62.96
60087;BME280;45960;53.630;55.972;2022-08-01T01:32:06;99674.69;;;19.36;63.01
60087;BME280;45960;53.630;55.972;2022-08-01T01:33:10;99681.09;;;19.43;63.19
60087;BME280;45960;53.630;55.972;2022-08-01T01:34:13;99663.84;;;19.36;63.26
60087;BME280;45960;53.630;55.972;2022-08-01T01:35:21;99599.25;;;19.00;63.29
60087;BME280;45960;53.630;55.972;2022-08-01T01:36:24;99684.66;;;19.52;63.22
60087;BME280;45960;53.630;55.972;2022-08-01T01:37:28;99678.00;;;19.55;63.32
60087;BME280;45960;53.630;55.972;2022-08-01T01:38:34;99679.03;;;19.54;63.13
60087;BME280;45960;53.630;55.972;2022-08-01T01:39:40;99681.75;;;19.54;63.11
60087;BME280;45960;53.630;55.972;2022-08-01T01:40:43;99683.13;;;19.58;63.29
60087;BME280;45960;53.630;55.972;2022-08-01T01:41:46;99682.25;;;19.57;63.22
60087;BME280;45960;53.630;55.972;2022-08-01T01:42:49;99689.88;;;19.62;63.35
60087;BME280;45960;53.630;55.972;2022-08-01T01:43:52;99683.41;;;19.63;63.39
60087;BME280;45960;53.630;55.972;2022-08-01T01:44:55;99693.25;;;19.64;63.01
60087;BME280;45960;53.630;55.972;2022-08-01T01:45:57;99679.56;;;19.65;63.04
60087;BME280;45960;53.630;55.972;2022-08-01T01:46:59;99681.91;;;19.60;63.04
60087;BME280;45960;53.630;55.972;2022-08-01T01:48:01;99688.69;;;19.64;63.13
60087;BME280;45960;53.630;55.972;2022-08-01T01:49:03;99677.34;;;19.61;63.03
60087;BME280;45960;53.630;55.972;2022-08-01T01:50:07;99689.53;;;19.65;62.89
60087;BME280;45960;53.630;55.972;2022-08-01T01:51:10;99678.38;;;19.68;63.12
60087;BME280;45960;53.630;55.972;2022-08-01T01:52:13;99677.38;;;19.69;62.99
60087;BME280;45960;53.630;55.972;2022-08-01T01:53:19;99683.78;;;19.68;62.93
60087;BME280;45960;53.630;55.972;2022-08-01T01:54:22;99681.75;;;19.70;62.98
60087;BME280;45960;53.630;55.972;2022-08-01T01:55:25;99676.34;;;19.70;63.20
60087;BME280;45960;53.630;55.972;2022-08-01T01:56:28;99678.84;;;19.72;62.99
60087;BME280;45960;53.630;55.972;2022-08-01T01:57:31;99681.41;;;19.73;63.21
60087;BME280;45960;53.630;55.972;2022-08-01T01:58:35;99687.84;;;19.72;63.07
60087;BME280;45960;53.630;55.972;2022-08-01T01:59:39;99682.09;;;19.75;63.05
60087;BME280;45960;53.630;55.972;2022-08-01T02:00:44;99679.38;;;19.75;62.75
60087;BME280;45960;53.630;55.972;2022-08-01T02:01:51;99686.47;;;19.76;62.62
60087;BME280;45960;53.630;55.972;2022-08-01T02:02:54;99684.44;;;19.78;62.65
60087;BME280;45960;53.630;55.972;2022-08-01T02:03:57;99687.84;;;19.80;62.59
60087;BME280;45960;53.630;55.972;2022-08-01T02:05:00;99673.94;;;19.75;62.66
60087;BME280;45960;53.630;55.972;2022-08-01T02:06:05;99689.16;;;19.84;62.68
60087;BME280;45960;53.630;55.972;2022-08-01T02:07:09;99687.47;;;19.83;62.61
60087;BME280;45960;53.630;55.972;2022-08-01T02:08:11;99690.84;;;19.85;62.61
60087;BME280;45960;53.630;55.972;2022-08-01T02:09:19;99693.25;;;19.80;62.65
60087;BME280;45960;53.630;55.972;2022-08-01T02:10:21;99690.00;;;19.85;62.74
60087;BME280;45960;53.630;55.972;2022-08-01T02:11:23;99693.22;;;19.88;62.80
60087;BME280;45960;53.630;55.972;2022-08-01T02:12:24;99683.03;;;19.90;62.61
60087;BME280;45960;53.630;55.972;2022-08-01T02:13:25;99679.31;;;19.92;62.68
60087;BME280;45960;53.630;55.972;2022-08-01T02:14:28;99681.00;;;19.93;62.69
60087;BME280;45960;53.630;55.972;2022-08-01T02:15:31;99679.81;;;19.95;62.67
60087;BME280;45960;53.630;55.972;2022-08-01T02:16:35;99681.50;;;19.96;62.55
60087;BME280;45960;53.630;55.972;2022-08-01T02:17:41;99681.31;;;19.98;62.48
60087;BME280;45960;53.630;55.972;2022-08-01T02:18:42;99682.66;;;20.02;62.24
60087;BME280;45960;53.630;55.972;2022-08-01T02:19:44;99683.34;;;20.04;62.00
60087;BME280;45960;53.630;55.972;2022-08-01T02:20:45;99688.41;;;20.07;62.08
60087;BME280;45960;53.630;55.972;2022-08-01T02:21:56;99682.97;;;20.07;62.16
60087;BME280;45960;53.630;55.972;2022-08-01T02:23:15;99666.41;;;19.94;62.02
60087;BME280;45960;53.630;55.972;2022-08-01T02:24:28;99688.75;;;20.04;62.04
60087;BME280;45960;53.630;55.972;2022-08-01T02:25:53;99682.31;;;19.97;62.09
60087;BME280;45960;53.630;55.972;2022-08-01T02:26:56;99686.38;;;20.09;62.22
60087;BME280;45960;53.630;55.972;2022-08-01T02:28:15;99681.09;;;20.07;62.01
60087;BME280;45960;53.630;55.972;2022-08-01T02:29:24;99668.38;;;20.08;61.98
60087;BME280;45960;53.630;55.972;2022-08-01T02:30:32;99682.25;;;20.13;61.84
60087;BME280;45960;53.630;55.972;2022-08-01T02:31:38;99666.34;;;20.10;61.92
60087;BME280;45960;53.630;55.972;2022-08-01T02:32:53;99686.97;;;20.19;61.63
60087;BME280;45960;53.630;55.972;2022-08-01T02:34:05;99683.25;;;20.20;61.43
60087;BME280;45960;53.630;55.972;2022-08-01T02:35:12;99685.94;;;20.28;61.12
60087;BME280;45960;53.630;55.972;2022-08-01T02:36:16;99691.84;;;20.32;60.83
60087;BME280;45960;53.630;55.972;2022-08-01T02:37:19;99693.00;;;20.38;60.91
60087;BME280;45960;53.630;55.972;2022-08-01T02:38:24;99703.69;;;20.39;60.83
60087;BME280;45960;53.630;55.972;2022-08-01T02:39:26;99703.81;;;20.46;60.70
60087;BME280;45960;53.630;55.972;2022-08-01T02:40:31;99688.25;;;20.40;60.97
60087;BME280;45960;53.630;55.972;2022-08-01T02:41:38;99703.94;;;20.52;60.80
60087;BME280;45960;53.630;55.972;2022-08-01T02:42:45;99691.91;;;20.55;60.29
60087;BME280;45960;53.630;55.972;2022-08-01T02:43:49;99694.25;;;20.58;60.00
60087;BME280;45960;53.630;55.972;2022-08-01T02:44:53;99691.56;;;20.58;59.91
60087;BME280;45960;53.630;55.972;2022-08-01T02:46:02;99698.31;;;20.62;59.58
60087;BME280;45960;53.630;55.972;2022-08-01T02:47:05;99694.72;;;20.70;59.52
60087;BME280;45960;53.630;55.972;2022-08-01T02:48:12;99697.25;;;20.71;59.54
60087;BME280;45960;53.630;55.972;2022-08-01T02:49:14;99693.63;;;20.79;59.92
60087;BME280;45960;53.630;55.972;2022-08-01T02:50:17;99697.19;;;20.79;59.33
60087;BME280;45960;53.630;55.972;2022-08-01T02:51:20;99691.59;;;20.81;58.67
60087;BME280;45960;53.630;55.972;2022-08-01T02:52:24;99695.78;;;20.84;58.87
60087;BME280;45960;53.630;55.972;2022-08-01T02:53:29;99690.03;;;20.87;58.92
60087;BME280;45960;53.630;55.972;2022-08-01T02:54:32;99675.78;;;20.85;59.02
60087;BME280;45960;53.630;55.972;2022-08-01T02:55:35;99692.69;;;20.95;58.86
60087;BME280;45960;53.630;55.972;2022-08-01T02:56:36;99690.59;;;20.97;58.33
60087;BME280;45960;53.630;55.972;2022-08-01T02:57:39;99690.25;;;21.00;58.14
60087;BME280;45960;53.630;55.972;2022-08-01T02:58:42;99688.19;;;21.02;58.24
60087;BME280;45960;53.630;55.972;2022-08-01T02:59:46;99687.81;;;21.05;57.79
60087;BME280;45960;53.630;55.972;2022-08-01T03:00:48;99683.72;;;21.09;57.89
60087;BME280;45960;53.630;55.972;2022-08-01T03:01:52;99682.53;;;21.12;57.75
60087;BME280;45960;53.630;55.972;2022-08-01T03:02:56;99671.16;;;21.08;58.33
60087;BME280;45960;53.630;55.972;2022-08-01T03:03:58;99683.09;;;21.22;58.61
60087;BME280;45960;53.630;55.972;2022-08-01T03:05:01;99685.28;;;21.27;58.74
60087;BME280;45960;53.630;55.972;2022-08-01T03:06:03;99675.72;;;21.31;58.55
60087;BME280;45960;53.630;55.972;2022-08-01T03:07:07;99680.78;;;21.34;58.56
60087;BME280;45960;53.630;55.972;2022-08-01T03:08:10;99680.09;;;21.40;58.46
60087;BME280;45960;53.630;55.972;2022-08-01T03:09:12;99683.44;;;21.42;57.98
60087;BME280;45960;53.630;55.972;2022-08-01T03:10:15;99689.38;;;21.45;57.88
60087;BME280;45960;53.630;55.972;2022-08-01T03:11:18;99684.22;;;21.51;57.86
60087;BME280;45960;53.630;55.972;2022-08-01T03:12:22;99675.72;;;21.54;58.01
60087;BME280;45960;53.630;55.972;2022-08-01T03:13:25;99684.50;;;21.56;57.70
60087;BME280;45960;53.630;55.972;2022-08-01T03:14:27;99682.91;;;21.61;57.57
60087;BME280;45960;53.630;55.972;2022-08-01T03:15:31;99682.91;;;21.61;57.69
60087;BME280;45960;53.630;55.972;2022-08-01T03:16:35;99679.44;;;21.67;57.65
60087;BME280;45960;53.630;55.972;2022-08-01T03:17:38;99674.66;;;21.70;57.72
60087;BME280;45960;53.630;55.972;2022-08-01T03:18:43;99681.25;;;21.75;57.88
60087;BME280;45960;53.630;55.972;2022-08-01T03:19:46;99665.50;;;21.71;57.85
60087;BME280;45960;53.630;55.972;2022-08-01T03:20:49;99685.09;;;21.81;57.31
60087;BME280;45960;53.630;55.972;2022-08-01T03:21:51;99686.22;;;21.86;56.87
60087;BME280;45960;53.630;55.972;2022-08-01T03:22:54;99685.00;;;21.89;56.50
60087;BME280;45960;53.630;55.972;2022-08-01T03:23:57;99676.44;;;21.92;57.49
60087;BME280;45960;53.630;55.972;2022-08-01T03:25:00;99676.75;;;21.97;57.59
60087;BME280;45960;53.630;55.972;2022-08-01T03:26:05;99676.34;;;22.00;57.61
60087;BME280;45960;53.630;55.972;2022-08-01T03:27:07;99677.69;;;22.04;58.01
60087;BME280;45960;53.630;55.972;2022-08-01T03:28:12;99680.41;;;22.04;58.11
60087;BME280;45960;53.630;55.972;2022-08-01T03:29:21;99672.59;;;22.01;57.73
60087;BME280;45960;53.630;55.972;2022-08-01T03:30:25;99680.66;;;22.09;57.83
60087;BME280;45960;53.630;55.972;2022-08-01T03:31:27;99681.97;;;22.13;57.73
60087;BME280;45960;53.630;55.972;2022-08-01T03:32:29;99680.59;;;22.18;57.43
60087;BME280;45960;53.630;55.972;2022-08-01T03:33:31;99673.75;;;22.22;57.54
60087;BME280;45960;53.630;55.972;2022-08-01T03:34:33;99682.19;;;22.27;57.58
60087;BME280;45960;53.630;55.972;2022-08-01T03:35:37;99674.66;;;22.29;57.93
60087;BME280;45960;53.630;55.972;2022-08-01T03:36:47;99674.66;;;22.29;57.45
60087;BME280;45960;53.630;55.972;2022-08-01T03:37:51;99680.38;;;22.34;57.15
60087;BME280;45960;53.630;55.972;2022-08-01T03:38:57;99674.53;;;22.37;57.49
60087;BME280;45960;53.630;55.972;2022-08-01T03:40:09;99676.88;;;22.40;57.32
60087;BME280;45960;53.630;55.972;2022-08-01T03:41:21;99676.88;;;22.40;56.97
60087;BME280;45960;53.630;55.972;2022-08-01T03:42:50;99671.44;;;22.40;57.20
60087;BME280;45960;53.630;55.972;2022-08-01T03:43:59;99669.19;;;22.44;57.71
60087;BME280;45960;53.630;55.972;2022-08-01T03:45:05;99665.69;;;22.50;57.36
60087;BME280;45960;53.630;55.972;2022-08-01T03:46:19;99669.91;;;22.52;57.64
60087;BME280;45960;53.630;55.972;2022-08-01T03:47:24;99670.81;;;22.60;57.37
60087;BME280;45960;53.630;55.972;2022-08-01T03:48:28;99666.69;;;22.64;57.43
60087;BME280;45960;53.630;55.972;2022-08-01T03:49:42;99674.47;;;22.67;57.39
60087;BME280;45960;53.630;55.972;2022-08-01T03:50:48;99672.41;;;22.69;57.54
60087;BME280;45960;53.630;55.972;2022-08-01T03:51:52;99665.91;;;22.70;57.55
60087;BME280;45960;53.630;55.972;2022-08-01T03:52:54;99668.13;;;22.81;57.07
60087;BME280;45960;53.630;55.972;2022-08-01T03:53:59;99668.97;;;22.82;57.06
60087;BME280;45960;53.630;55.972;2022-08-01T03:55:05;99667.72;;;22.84;57.19
60087;BME280;45960;53.630;55.972;2022-08-01T03:56:08;99664.63;;;22.87;57.31
60087;BME280;45960;53.630;55.972;2022-08-01T03:57:10;99664.69;;;22.94;56.88
60087;BME280;45960;53.630;55.972;2022-08-01T03:58:11;99671.47;;;22.98;56.20
60087;BME280;45960;53.630;55.972;2022-08-01T03:59:14;99676.72;;;22.99;55.75
60087;BME280;45960;53.630;55.972;2022-08-01T04:00:17;99657.34;;;22.94;55.42
60087;BME280;45960;53.630;55.972;2022-08-01T04:01:21;99680.34;;;23.07;55.24
60087;BME280;45960;53.630;55.972;2022-08-01T04:02:22;99680.59;;;23.12;55.40
60087;BME280;45960;53.630;55.972;2022-08-01T04:03:24;99688.38;;;23.15;55.27
60087;BME280;45960;53.630;55.972;2022-08-01T04:04:25;99669.69;;;23.12;55.05
60087;BME280;45960;53.630;55.972;2022-08-01T04:05:26;99679.00;;;23.24;54.72
60087;BME280;45960;53.630;55.972;2022-08-01T04:06:28;99686.56;;;23.22;54.78
60087;BME280;45960;53.630;55.972;2022-08-01T04:07:32;99670.22;;;23.22;55.12
60087;BME280;45960;53.630;55.972;2022-08-01T04:08:38;99693.34;;;23.33;54.94
60087;BME280;45960;53.630;55.972;2022-08-01T04:09:39;99691.69;;;23.38;55.49
60087;BME280;45960;53.630;55.972;2022-08-01T04:10:40;99693.84;;;23.43;55.62
60087;BME280;45960;53.630;55.972;2022-08-01T04:11:42;99688.84;;;23.46;55.49
60087;BME280;45960;53.630;55.972;2022-08-01T04:12:43;99691.16;;;23.50;55.35
60087;BME280;45960;53.630;55.972;2022-08-01T04:13:44;99691.41;;;23.55;54.70
60087;BME280;45960;53.630;55.972;2022-08-01T04:14:46;99695.44;;;23.59;54.83
60087;BME280;45960;53.630;55.972;2022-08-01T04:15:47;99685.16;;;23.61;54.26
60087;BME280;45960;53.630;55.972;2022-08-01T04:16:48;99691.91;;;23.65;54.08
60087;BME280;45960;53.630;55.972;2022-08-01T04:17:49;99689.44;;;23.70;54.29
60087;BME280;45960;53.630;55.972;2022-08-01T04:18:50;99689.91;;;23.74;54.14
60087;BME280;45960;53.630;55.972;2022-08-01T04:19:52;99684.88;;;23.77;54.54
60087;BME280;45960;53.630;55.972;2022-08-01T04:20:53;99685.34;;;23.81;54.54
60087;BME280;45960;53.630;55.972;2022-08-01T04:21:54;99681.56;;;23.82;54.34
60087;BME280;45960;53.630;55.972;2022-08-01T04:22:55;99692.72;;;23.87;54.23
60087;BME280;45960;53.630;55.972;2022-08-01T04:23:59;99687.91;;;23.89;54.95
60087;BME280;45960;53.630;55.972;2022-08-01T04:25:06;99687.69;;;23.90;54.46
60087;BME280;45960;53.630;55.972;2022-08-01T04:26:09;99679.09;;;23.94;53.92
60087;BME280;45960;53.630;55.972;2022-08-01T04:27:13;99683.75;;;24.00;53.75
60087;BME280;45960;53.630;55.972;2022-08-01T04:28:17;99684.00;;;24.05;53.62
60087;BME280;45960;53.630;55.972;2022-08-01T04:29:21;99688.00;;;24.09;53.59
60087;BME280;45960;53.630;55.972;2022-08-01T04:30:27;99684.03;;;24.11;53.92
60087;BME280;45960;53.630;55.972;2022-08-01T04:31:32;99686.78;;;24.18;55.38
60087;BME280;45960;53.630;55.972;2022-08-01T04:32:38;99683.84;;;24.20;54.67
60087;BME280;45960;53.630;55.972;2022-08-01T04:33:42;99685.13;;;24.24;54.74
60087;BME280;45960;53.630;55.972;2022-08-01T04:34:46;99683.47;;;24.29;53.97
60087;BME280;45960;53.630;55.972;2022-08-01T04:35:48;99682.00;;;24.33;54.04
60087;BME280;45960;53.630;55.972;2022-08-01T04:36:53;99667.94;;;24.23;53.97
60087;BME280;45960;53.630;55.972;2022-08-01T04:37:56;99683.94;;;24.40;52.05
60087;BME280;45960;53.630;55.972;2022-08-01T04:39:00;99679.94;;;24.42;51.37
60087;BME280;45960;53.630;55.972;2022-08-01T04:40:06;99681.44;;;24.45;51.44
60087;BME280;45960;53.630;55.972;2022-08-01T04:41:11;99664.44;;;24.43;52.77
60087;BME280;45960;53.630;55.972;2022-08-01T04:42:13;99681.91;;;24.55;53.54
60087;BME280;45960;53.630;55.972;2022-08-01T04:43:16;99679.41;;;24.60;53.88
60087;BME280;45960;53.630;55.972;2022-08-01T04:44:17;99682.56;;;24.64;53.52
60087;BME280;45960;53.630;55.972;2022-08-01T04:45:18;99673.97;;;24.67;53.86
60087;BME280;45960;53.630;55.972;2022-08-01T04:46:20;99673.53;;;24.70;53.69
60087;BME280;45960;53.630;55.972;2022-08-01T04:47:23;99672.28;;;24.72;53.25
60087;BME280;45960;53.630;55.972;2022-08-01T04:48:25;99682.38;;;24.78;53.43
60087;BME280;45960;53.630;55.972;2022-08-01T04:49:27;99684.31;;;24.85;54.07
60087;BME280;45960;53.630;55.972;2022-08-01T04:50:28;99681.16;;;24.88;52.81
60087;BME280;45960;53.630;55.972;2022-08-01T04:51:29;99678.00;;;24.91;51.45
60087;BME280;45960;53.630;55.972;2022-08-01T04:52:38;99680.75;;;24.91;50.55
60087;BME280;45960;53.630;55.972;2022-08-01T04:53:39;99672.34;;;24.99;50.80
60087;BME280;45960;53.630;55.972;2022-08-01T04:54:40;99679.06;;;25.03;51.73
60087;BME280;45960;53.630;55.972;2022-08-01T04:55:42;99673.81;;;25.08;51.77
60087;BME280;45960;53.630;55.972;2022-08-01T04:56:43;99674.47;;;25.10;51.96
60087;BME280;45960;53.630;55.972;2022-08-01T04:57:45;99670.47;;;25.13;51.35
60087;BME280;45960;53.630;55.972;2022-08-01T04:58:47;99671.97;;;25.22;51.05
60087;BME280;45960;53.630;55.972;2022-08-01T04:59:48;99675.13;;;25.26;51.41
60087;BME280;45960;53.630;55.972;2022-08-01T05:00:53;99668.19;;;25.30;51.27
60087;BME280;45960;53.630;55.972;2022-08-01T05:01:54;99675.97;;;25.33;50.49
60087;BME280;45960;53.630;55.972;2022-08-01T05:02:55;99665.25;;;25.38;50.16
60087;BME280;45960;53.630;55.972;2022-08-01T05:03:56;99670.28;;;25.41;50.41
60087;BME280;45960;53.630;55.972;2022-08-01T05:04:57;99673.22;;;25.46;49.69
60087;BME280;45960;53.630;55.972;2022-08-01T05:05:59;99663.13;;;25.47;50.32
60087;BME280;45960;53.630;55.972;2022-08-01T05:07:00;99666.47;;;25.55;50.87
60087;BME280;45960;53.630;55.972;2022-08-01T05:08:01;99659.75;;;25.58;49.89
60087;BME280;45960;53.630;55.972;2022-08-01T05:09:02;99663.09;;;25.60;48.90
60087;BME280;45960;53.630;55.972;2022-08-01T05:10:05;99667.94;;;25.64;48.33
60087;BME280;45960;53.630;55.972;2022-08-01T05:11:06;99669.19;;;25.68;48.77
60087;BME280;45960;53.630;55.972;2022-08-01T05:12:08;99647.09;;;25.63;49.40
60087;BME280;45960;53.630;55.972;2022-08-01T05:13:09;99660.13;;;25.75;49.41
60087;BME280;45960;53.630;55.972;2022-08-01T05:14:11;99664.75;;;25.81;49.38
60087;BME280;45960;53.630;55.972;2022-08-01T05:15:12;99661.41;;;25.85;49.88
60087;BME280;45960;53.630;55.972;2022-08-01T05:16:14;99657.16;;;25.89;49.75
60087;BME280;45960;53.630;55.972;2022-08-01T05:17:15;99657.56;;;25.93;49.57
60087;BME280;45960;53.630;55.972;2022-08-01T05:18:17;99656.09;;;25.97;49.16
60087;BME280;45960;53.630;55.972;2022-08-01T05:19:18;99659.22;;;26.01;48.87
60087;BME280;45960;53.630;55.972;2022-08-01T05:20:19;99654.16;;;26.04;48.96
60087;BME280;45960;53.630;55.972;2022-08-01T05:21:20;99654.34;;;26.09;49.14
60087;BME280;45960;53.630;55.972;2022-08-01T05:22:22;99662.13;;;26.12;49.45
60087;BME280;45960;53.630;55.972;2022-08-01T05:23:23;99656.84;;;26.18;48.32
60087;BME280;45960;53.630;55.972;2022-08-01T05:24:24;99650.34;;;26.19;48.03
60087;BME280;45960;53.630;55.972;2022-08-01T05:25:25;99648.84;;;26.23;47.40
60087;BME280;45960;53.630;55.972;2022-08-01T05:26:26;99663.75;;;26.27;47.29
60087;BME280;45960;53.630;55.972;2022-08-01T05:27:27;99661.22;;;26.32;47.64
60087;BME280;45960;53.630;55.972;2022-08-01T05:28:28;99655.28;;;26.35;48.19
60087;BME280;45960;53.630;55.972;2022-08-01T05:29:30;99651.09;;;26.39;47.71
60087;BME280;45960;53.630;55.972;2022-08-01T05:30:32;99653.38;;;26.42;48.46
60087;BME280;45960;53.630;55.972;2022-08-01T05:31:33;99651.88;;;26.46;46.83
60087;BME280;45960;53.630;55.972;2022-08-01T05:32:35;99636.72;;;26.44;46.90
60087;BME280;45960;53.630;55.972;2022-08-01T05:33:36;99653.34;;;26.55;47.93
60087;BME280;45960;53.630;55.972;2022-08-01T05:34:38;99654.56;;;26.60;47.79
60087;BME280;45960;53.630;55.972;2022-08-01T05:35:39;99649.28;;;26.65;48.31
60087;BME280;45960;53.630;55.972;2022-08-01T05:36:40;99659.34;;;26.71;49.16
60087;BME280;45960;53.630;55.972;2022-08-01T05:37:41;99642.50;;;26.67;48.39
60087;BME280;45960;53.630;55.972;2022-08-01T05:38:42;99656.34;;;26.79;48.58
60087;BME280;45960;53.630;55.972;2022-08-01T05:39:43;99648.38;;;26.77;48.76
60087;BME280;45960;53.630;55.972;2022-08-01T05:40:44;99639.47;;;26.82;48.38
60087;BME280;45960;53.630;55.972;2022-08-01T05:41:45;99656.25;;;26.92;48.06
60087;BME280;45960;53.630;55.972;2022-08-01T05:42:46;99662.13;;;26.96;47.62